Sinnamary, French Guiana
Current Conditions -  °F | °C
As of 4:30 PM on Thursday 27 Nov 2014 (Local Time) from SOCA Reporting Station
Few Clouds Few Clouds  
Wind Chill: 86°   Ceiling: Unl
Heat Index: 92°   Visibility: 6mi
Dew Point: 72°   Wind: 13mph
Humidity: 62%   Direction: 80°E
Pressure: 29.83"   Gusts: NA
Location:  5.02°N, 52.95°W
Report Text: SOCA 271930Z AUTO 08011KT 9999 FEW034/// 30/22 Q1010
Loading
Personal Weather Stations






























Interactive Weather Map New forecast layout! Learn more

10-Day Weather Forecast

Advertisements
Track Severe Weather on mobile